Weather observations for the past three days for
Melville Hall Airport
| Date | Time (ast) | Wind (mph) | Vis. (mi.) | Weather | Sky Cond. | Temperature (ºF) | Relative Humidity | Wind Chill (°F) | Heat Index (°F) | Pressure | Precipitation (in) | ||||||
|---|---|---|---|---|---|---|---|---|---|---|---|---|---|---|---|---|---|
| Air | Dwpt | 6 hour | altimeter (in) | sea level (mb) | 1 hr | 3 hr | 6 hr | ||||||||||
| Max. | Min. | ||||||||||||||||
| 06 | 10:00 | SE 12 | 0.00 | Mostly Cloudy | BKN019 | 84.2 | 75.2 | 74% | 92 | 0 | 0.0 | ||||||
| 06 | 09:00 | SE 12 | 0.00 | Partly Cloudy | SCT018 | 82.4 | 75.2 | 79% | 89 | 0 | 0.0 | ||||||
| 06 | 08:00 | E 9 | 0.00 | Partly Cloudy | SCT015 SCT032 | 80.6 | 73.4 | 79% | 85 | 0 | 0.0 | ||||||
| 06 | 07:00 | E 10 | 0.00 | Partly Cloudy | SCT018 | 80.6 | 73.4 | 79% | 85 | 0 | 0.0 | ||||||
| 06 | 06:00 | SE 6 | 0.00 | Showers in Vicinity | SCT020 | 80.6 | 73.4 | 79% | 85 | 0 | 0.0 | ||||||
| 05 | 19:00 | SE 9 | 0.00 | Partly Cloudy | SCT016 | 80.6 | 73.4 | 79% | 85 | 0 | 0.0 | ||||||
| 05 | 18:00 | SE 8 | 0.00 | Partly Cloudy | SCT016 | 80.6 | 73.4 | 79% | 85 | 0 | 0.0 | ||||||
| 05 | 17:00 | E 10 | 0.00 | Partly Cloudy | SCT017 | 80.6 | 75.2 | 84% | 86 | 0 | 0.0 | ||||||
| 05 | 16:00 | SE 10 | 0.00 | Mostly Cloudy | BKN018 | 82.4 | 75.2 | 79% | 89 | 0 | 0.0 | ||||||
| 05 | 15:00 | E 10 | 0.00 | Mostly Cloudy | BKN017 | 82.4 | 75.2 | 79% | 89 | 0 | 0.0 | ||||||
| 05 | 14:00 | E 13 | 0.00 | Mostly Cloudy | BKN016 | 82.4 | 75.2 | 79% | 89 | 0 | 0.0 | ||||||
| 05 | 13:00 | E 14 | 0.00 | Mostly Cloudy | BKN016 | 84.2 | 75.2 | 74% | 92 | 0 | 0.0 | ||||||
| 05 | 12:00 | E 13 | 0.00 | Partly Cloudy | SCT018 | 84.2 | 75.2 | 74% | 92 | 0 | 0.0 | ||||||
| 05 | 11:00 | E 14 | 0.00 | Partly Cloudy | BKN018 SCT065 | 84.2 | 73.4 | 70% | 91 | 0 | 0.0 | ||||||
| 05 | 10:00 | E 12 | 0.00 | Mostly Cloudy | BKN018 | 82.4 | 73.4 | 74% | 88 | 0 | 0.0 | ||||||
| 05 | 09:00 | E 13 | 0.00 | Mostly Cloudy | BKN018 | 84.2 | 75.2 | 74% | 92 | 0 | 0.0 | ||||||
| 05 | 08:00 | E 12 | 0.00 | Mostly Cloudy | SCT018 BKN030 | 80.6 | 73.4 | 79% | 85 | 0 | 0.0 | ||||||
| 05 | 07:00 | SE 9 | 0.00 | Mostly Cloudy | BKN018 | 80.6 | 73.4 | 79% | 85 | 0 | 0.0 | ||||||
| 05 | 06:00 | W 5 | 0.00 | Mostly Cloudy | BKN018 | 73.4 | 71.6 | 94% | 0 | 0.0 | |||||||
| 04 | 20:00 | SE 7 | 0.00 | Mostly Cloudy | BKN018 | 78.8 | 73.4 | 84% | 82 | 0 | 0.0 | ||||||
| 04 | 19:00 | SE 6 | 0.00 | Mostly Cloudy | BKN018 | 78.8 | 73.4 | 84% | 82 | 0 | 0.0 | ||||||
| 04 | 18:00 | SE 5 | 0.00 | Mostly Cloudy | BKN019 | 80.6 | 73.4 | 79% | 85 | 0 | 0.0 | ||||||
| 04 | 17:00 | SE 9 | 0.00 | Partly Cloudy | SCT019 | 82.4 | 73.4 | 74% | 88 | 0 | 0.0 | ||||||
| 04 | 16:00 | E 10 | 0.00 | A Few Clouds | FEW021 | 82.4 | 73.4 | 74% | 88 | 0 | 0.0 | ||||||
| 04 | 15:00 | SE 10 | 0.00 | Mostly Cloudy | FEW012 BKN032 | 84.2 | 75.2 | 74% | 92 | 0 | 0.0 | ||||||
| 04 | 14:00 | E 12 | 0.00 | Showers in Vicinity | FEW014 BKN032 | 80.6 | 77 | 89% | 87 | 0 | 0.0 | ||||||
| 04 | 13:00 | SE 12 | 0.00 | Partly Cloudy | FEW017 SCT032 | 84.2 | 73.4 | 70% | 91 | 0 | 0.0 | ||||||
| 04 | 12:00 | SE 12 | 0.00 | Mostly Cloudy | FEW026 BKN040 | 86 | 73.4 | 66% | 93 | 0 | 0.0 | ||||||
| 04 | 11:00 | SE 13 | 0.00 | Partly Cloudy | FEW024 SCT035 | 86 | 71.6 | 62% | 92 | 0 | 0.0 | ||||||
| 04 | 10:00 | SE 13 | 0.00 | A Few Clouds | FEW024 | 84.2 | 71.6 | 66% | 90 | 0 | 0.0 | ||||||
| 04 | 09:00 | SE 14 | 0.00 | A Few Clouds | FEW024 | 84.2 | 71.6 | 66% | 90 | 0 | 0.0 | ||||||
| 04 | 07:00 | SE 12 | 0.00 | Partly Cloudy | SCT020 | 80.6 | 71.6 | 74% | 85 | 0 | 0.0 | ||||||
| 04 | 06:00 | SE 10 | 0.00 | Partly Cloudy | SCT018 | 78.8 | 71.6 | 79% | 82 | 0 | 0.0 | ||||||
| 03 | 19:00 | SE 7 | 0.00 | Mostly Cloudy | BKN018 | 78.8 | 73.4 | 84% | 82 | 0 | 0.0 | ||||||
| 03 | 18:00 | E 10 | 0.00 | Mostly Cloudy | BKN018 | 82.4 | 73.4 | 74% | 88 | 0 | 0.0 | ||||||
| 03 | 17:00 | SE 10 | 0.00 | Mostly Cloudy | BKN018 | 82.4 | 73.4 | 74% | 88 | 0 | 0.0 | ||||||
| 03 | 16:00 | E 13 | 0.00 | Light Showers Rain | BKN018 BKN032 | 80.6 | 73.4 | 79% | 85 | 0 | 0.0 | ||||||
| 03 | 15:00 | E 13 | 0.00 | Mostly Cloudy | BKN018 BKN032 | 82.4 | 75.2 | 79% | 89 | 0 | 0.0 | ||||||
| 03 | 14:00 | E 10 | 0.00 | Mostly Cloudy | SCT018 BKN032 | 82.4 | 75.2 | 79% | 89 | 0 | 0.0 | ||||||
| 03 | 13:00 | E 10 | 0.00 | Mostly Cloudy | BKN018 | 84.2 | 75.2 | 74% | 92 | 0 | 0.0 | ||||||
| 03 | 12:00 | E 12 | 0.00 | Partly Cloudy | SCT018 | 84.2 | 75.2 | 74% | 92 | 0 | 0.0 | ||||||
| Date | Time (ast) | Wind (mph) | Vis. (mi.) | Weather | Sky Cond. | Air | Dwpt | Max. | Min. | Relative Humidity | Wind Chill (°F) | Heat Index (°F) | altimeter (in) | sea level (mb) | 1 hr | 3 hr | 6 hr |
| 6 hour | |||||||||||||||||
| Temperature (ºF) | Pressure | Precipitation (in) | |||||||||||||||